This is the latest recevied weather packets stored in our database for station/object AD8BW. If no packets are shown the sender has not sent any weather packets the latest 10 day(s).
| Time | Temp. | Humidity | Pressure | Rain* | Wind** | Luminosity | Snow |
|---|---|---|---|---|---|---|---|
| 1777576105 | 10° C | 44% | 1012.9 hPa | 0 mm | - | 221 W/m² | - |
| 1777575499 | 10° C | 50% | 1012.9 hPa | 0 mm | - | 225 W/m² | - |
| 1777574898 | 10° C | 48% | 1012.9 hPa | 0 mm | - | 199 W/m² | - |
| 1777574302 | 10° C | 52% | 1012.9 hPa | 0 mm | - | 216 W/m² | - |
| 1777573699 | 9.44° C | 53% | 1012.9 hPa | 0 mm | - | 316 W/m² | - |
| 1777573102 | 9.44° C | 52% | 1012.9 hPa | 0 mm | - | 160 W/m² | - |
| 1777572496 | 10° C | 51% | 1012.9 hPa | 0 mm | - | 171 W/m² | - |
| 1777571896 | 10° C | 53% | 1012.9 hPa | 0 mm | - | 322 W/m² | - |
| 1777571296 | 8.89° C | 51% | 1013 hPa | 0 mm | - | 185 W/m² | - |
| 1777570696 | 8.89° C | 53% | 1013 hPa | 0 mm | - | 107 W/m² | - |
| 1777570098 | 9.44° C | 49% | 1012.9 hPa | 0 mm | - | 116 W/m² | - |
| 1777569495 | 10° C | 52% | 1012.9 hPa | 0 mm | - | 151 W/m² | - |
| 1777568897 | 9.44° C | 52% | 1013.1 hPa | 0 mm | - | 192 W/m² | - |
| 1777568298 | 9.44° C | 52% | 1013.1 hPa | 0 mm | - | 130 W/m² | - |
| 1777567695 | 9.44° C | 53% | 1013.2 hPa | 0 mm | - | 113 W/m² | - |
| 1777567096 | 9.44° C | 55% | 1013.3 hPa | 0 mm | - | 93 W/m² | - |
| 1777566497 | 8.89° C | 54% | 1013.2 hPa | 0 mm | - | 236 W/m² | - |
| 1777565896 | 8.89° C | 56% | 1013.3 hPa | 0 mm | - | 141 W/m² | - |
| 1777565298 | 9.44° C | 57% | 1013.1 hPa | 0 mm | - | 104 W/m² | - |
| 1777564696 | 8.89° C | 55% | 1013.3 hPa | 0 mm | - | 172 W/m² | - |
| 1777564096 | 10° C | 55% | 1013.1 hPa | 0 mm | - | 188 W/m² | - |
| 1777563495 | 8.89° C | 57% | 1013.1 hPa | 0 mm | - | 452 W/m² | - |
| 1777562897 | 8.89° C | 58% | 1013.2 hPa | 0 mm | - | 142 W/m² | - |
| 1777562291 | 8.33° C | 60% | 1013.2 hPa | 0 mm | - | 432 W/m² | - |
| 1777561689 | 8.33° C | 59% | 1013.3 hPa | 0 mm | - | 190 W/m² | - |
* Rain latest hour (hover to see other rain measurements)
** Current wind speed in m/s (hover to see current wind gust speed)